Weather at Uzundzhovo Navy Airbase [CLOSED]

Public forecast

Using degrees Celsius for public forecast. Weather courtesy of forecast.io.

Closest aviation weather report (METAR) to Uzundzhovo Navy Airbase

Closest report is Plovdiv International Airport, 33.4 nm (61.9 km) W.

2023/03/28 23:30 (retrieved 37 minutes ago)

LBPD 282330Z AUTO 28023KT 9999 SCT081/// 04/M07 Q1019

Closest aviation forecast (TAF) to Uzundzhovo Navy Airbase

Forecast is more than 12 hours old.

Closest forecast is Kuk√ęs International Airport, 230.8 nm (427.5 km) W.

2023/03/28 12:00 Ammendment (retrieved 12 hours ago)

TAF AMD LAKU 281615Z 2812/2912 CNL